Ferris, Illinois
Current Conditions -  °F | °C
As of 1:15 AM on Wednesday 22 Oct 2014 (Local Time) from KEOK Reporting Station
Unknown Precip Unknown Precip  
Wind Chill: 39°   Ceiling: Unl
Heat Index: 45°   Visibility: 10mi
Dew Point: 41°   Wind: 12mph
Humidity: 87%   Direction: 110°ESE
Pressure: 30.22"   Gusts: NA
Location:  40.47°N, 91.17°W
Report Text: KEOK 220615Z AUTO 11010KT 10SM -UP CLR 07/05 A3022 RMK AO2
Loading
Personal Weather Stations






























Interactive Weather Map
Tropical Storm Tracking
New forecast layout! Learn more

10-Day Weather Forecast

Advertisements
Track Severe Weather on mobile